sensor_id;sensor_type;location;lat;lon;timestamp;P1;durP1;ratioP1;P2;durP2;ratioP2
68921;SDS011;55959;51.244;5.724;2022-07-24T00:00:37;5.13;;;4.72;;
68921;SDS011;55959;51.244;5.724;2022-07-24T00:03:04;5.20;;;4.70;;
68921;SDS011;55959;51.244;5.724;2022-07-24T00:05:30;5.20;;;4.80;;
68921;SDS011;55959;51.244;5.724;2022-07-24T00:07:56;5.40;;;4.95;;
68921;SDS011;55959;51.244;5.724;2022-07-24T00:10:21;5.65;;;5.05;;
68921;SDS011;55959;51.244;5.724;2022-07-24T00:12:47;4.95;;;4.55;;
68921;SDS011;55959;51.244;5.724;2022-07-24T00:15:13;5.40;;;4.80;;
68921;SDS011;55959;51.244;5.724;2022-07-24T00:17:39;5.60;;;5.10;;
68921;SDS011;55959;51.244;5.724;2022-07-24T00:20:06;5.32;;;4.93;;
68921;SDS011;55959;51.244;5.724;2022-07-24T00:22:33;5.15;;;4.75;;
68921;SDS011;55959;51.244;5.724;2022-07-24T00:24:59;5.18;;;4.68;;
68921;SDS011;55959;51.244;5.724;2022-07-24T00:27:25;4.90;;;4.50;;
68921;SDS011;55959;51.244;5.724;2022-07-24T00:29:51;5.18;;;4.68;;
68921;SDS011;55959;51.244;5.724;2022-07-24T00:32:16;5.00;;;4.50;;
68921;SDS011;55959;51.244;5.724;2022-07-24T00:34:42;4.97;;;4.50;;
68921;SDS011;55959;51.244;5.724;2022-07-24T00:37:08;4.95;;;4.55;;
68921;SDS011;55959;51.244;5.724;2022-07-24T00:39:34;5.13;;;4.72;;
68921;SDS011;55959;51.244;5.724;2022-07-24T00:41:59;5.07;;;4.68;;
68921;SDS011;55959;51.244;5.724;2022-07-24T00:44:25;5.22;;;4.72;;
68921;SDS011;55959;51.244;5.724;2022-07-24T00:46:51;5.53;;;5.03;;
68921;SDS011;55959;51.244;5.724;2022-07-24T00:49:17;6.25;;;5.65;;
68921;SDS011;55959;51.244;5.724;2022-07-24T00:51:45;6.25;;;5.57;;
68921;SDS011;55959;51.244;5.724;2022-07-24T00:54:14;6.30;;;5.80;;
68921;SDS011;55959;51.244;5.724;2022-07-24T00:56:42;5.88;;;5.38;;
68921;SDS011;55959;51.244;5.724;2022-07-24T00:59:10;5.40;;;4.90;;
68921;SDS011;55959;51.244;5.724;2022-07-24T01:01:37;6.20;;;5.38;;
68921;SDS011;55959;51.244;5.724;2022-07-24T01:04:03;5.22;;;4.80;;
68921;SDS011;55959;51.244;5.724;2022-07-24T01:06:29;5.68;;;5.13;;
68921;SDS011;55959;51.244;5.724;2022-07-24T01:08:55;5.57;;;5.18;;
68921;SDS011;55959;51.244;5.724;2022-07-24T01:11:22;5.40;;;4.90;;
68921;SDS011;55959;51.244;5.724;2022-07-24T01:13:49;5.63;;;5.13;;
68921;SDS011;55959;51.244;5.724;2022-07-24T01:16:15;5.65;;;5.15;;
68921;SDS011;55959;51.244;5.724;2022-07-24T01:18:41;5.82;;;5.32;;
68921;SDS011;55959;51.244;5.724;2022-07-24T01:21:07;5.15;;;4.63;;
68921;SDS011;55959;51.244;5.724;2022-07-24T01:23:33;5.68;;;5.20;;
68921;SDS011;55959;51.244;5.724;2022-07-24T01:25:59;5.93;;;5.43;;
68921;SDS011;55959;51.244;5.724;2022-07-24T01:28:26;5.60;;;5.10;;
68921;SDS011;55959;51.244;5.724;2022-07-24T01:30:52;6.28;;;5.70;;
68921;SDS011;55959;51.244;5.724;2022-07-24T01:33:18;5.88;;;5.38;;
68921;SDS011;55959;51.244;5.724;2022-07-24T01:35:44;5.50;;;5.10;;
68921;SDS011;55959;51.244;5.724;2022-07-24T01:38:11;7.10;;;5.65;;
68921;SDS011;55959;51.244;5.724;2022-07-24T01:40:40;5.80;;;5.18;;
68921;SDS011;55959;51.244;5.724;2022-07-24T01:43:06;5.88;;;5.28;;
68921;SDS011;55959;51.244;5.724;2022-07-24T01:45:32;6.10;;;5.60;;
68921;SDS011;55959;51.244;5.724;2022-07-24T01:47:58;5.20;;;4.80;;
68921;SDS011;55959;51.244;5.724;2022-07-24T01:50:24;5.82;;;5.32;;
68921;SDS011;55959;51.244;5.724;2022-07-24T01:52:50;6.03;;;5.53;;
68921;SDS011;55959;51.244;5.724;2022-07-24T01:55:18;5.38;;;4.97;;
68921;SDS011;55959;51.244;5.724;2022-07-24T01:57:45;6.20;;;5.10;;
68921;SDS011;55959;51.244;5.724;2022-07-24T02:00:12;5.32;;;4.88;;
68921;SDS011;55959;51.244;5.724;2022-07-24T02:02:39;6.82;;;5.38;;
68921;SDS011;55959;51.244;5.724;2022-07-24T02:05:07;6.63;;;6.13;;
68921;SDS011;55959;51.244;5.724;2022-07-24T02:07:34;6.35;;;5.75;;
68921;SDS011;55959;51.244;5.724;2022-07-24T02:10:00;6.65;;;5.93;;
68921;SDS011;55959;51.244;5.724;2022-07-24T02:12:26;6.00;;;5.40;;
68921;SDS011;55959;51.244;5.724;2022-07-24T02:14:51;6.03;;;5.43;;
68921;SDS011;55959;51.244;5.724;2022-07-24T02:17:17;6.63;;;6.03;;
68921;SDS011;55959;51.244;5.724;2022-07-24T02:19:43;7.47;;;6.88;;
68921;SDS011;55959;51.244;5.724;2022-07-24T02:22:08;6.60;;;6.00;;
68921;SDS011;55959;51.244;5.724;2022-07-24T02:24:34;6.40;;;5.90;;
68921;SDS011;55959;51.244;5.724;2022-07-24T02:27:00;6.28;;;5.75;;
68921;SDS011;55959;51.244;5.724;2022-07-24T02:29:26;6.28;;;5.78;;
68921;SDS011;55959;51.244;5.724;2022-07-24T02:31:52;6.45;;;5.85;;
68921;SDS011;55959;51.244;5.724;2022-07-24T02:34:17;6.75;;;6.15;;
68921;SDS011;55959;51.244;5.724;2022-07-24T02:36:43;7.03;;;6.45;;
68921;SDS011;55959;51.244;5.724;2022-07-24T02:39:09;6.93;;;6.40;;
68921;SDS011;55959;51.244;5.724;2022-07-24T02:41:35;6.65;;;6.00;;
68921;SDS011;55959;51.244;5.724;2022-07-24T02:44:01;9.05;;;6.95;;
68921;SDS011;55959;51.244;5.724;2022-07-24T02:46:27;6.68;;;6.10;;
68921;SDS011;55959;51.244;5.724;2022-07-24T02:48:52;6.40;;;5.80;;
68921;SDS011;55959;51.244;5.724;2022-07-24T02:51:18;6.97;;;6.32;;
68921;SDS011;55959;51.244;5.724;2022-07-24T02:53:47;7.10;;;6.40;;
68921;SDS011;55959;51.244;5.724;2022-07-24T02:56:12;6.68;;;6.07;;
68921;SDS011;55959;51.244;5.724;2022-07-24T02:58:38;7.00;;;5.72;;
68921;SDS011;55959;51.244;5.724;2022-07-24T03:01:04;7.47;;;6.75;;
68921;SDS011;55959;51.244;5.724;2022-07-24T03:03:30;6.55;;;5.78;;
68921;SDS011;55959;51.244;5.724;2022-07-24T03:05:55;6.60;;;6.03;;
68921;SDS011;55959;51.244;5.724;2022-07-24T03:08:21;6.63;;;6.03;;
68921;SDS011;55959;51.244;5.724;2022-07-24T03:10:47;6.82;;;6.13;;
68921;SDS011;55959;51.244;5.724;2022-07-24T03:13:13;7.05;;;6.40;;
68921;SDS011;55959;51.244;5.724;2022-07-24T03:15:38;6.47;;;5.72;;
68921;SDS011;55959;51.244;5.724;2022-07-24T03:18:05;6.50;;;5.97;;
68921;SDS011;55959;51.244;5.724;2022-07-24T03:20:31;6.20;;;5.70;;
68921;SDS011;55959;51.244;5.724;2022-07-24T03:22:57;7.20;;;6.47;;
68921;SDS011;55959;51.244;5.724;2022-07-24T03:25:23;6.72;;;5.68;;
68921;SDS011;55959;51.244;5.724;2022-07-24T03:27:49;7.32;;;6.65;;
68921;SDS011;55959;51.244;5.724;2022-07-24T03:30:15;6.22;;;5.63;;
68921;SDS011;55959;51.244;5.724;2022-07-24T03:32:41;6.35;;;5.75;;
68921;SDS011;55959;51.244;5.724;2022-07-24T03:35:08;6.40;;;5.90;;
68921;SDS011;55959;51.244;5.724;2022-07-24T03:37:34;7.40;;;6.70;;
68921;SDS011;55959;51.244;5.724;2022-07-24T03:40:00;7.50;;;6.70;;
68921;SDS011;55959;51.244;5.724;2022-07-24T03:42:26;7.38;;;6.20;;
68921;SDS011;55959;51.244;5.724;2022-07-24T03:44:53;7.00;;;6.28;;
68921;SDS011;55959;51.244;5.724;2022-07-24T03:47:19;6.60;;;5.90;;
68921;SDS011;55959;51.244;5.724;2022-07-24T03:49:44;6.60;;;6.05;;
68921;SDS011;55959;51.244;5.724;2022-07-24T03:52:10;6.10;;;5.60;;
68921;SDS011;55959;51.244;5.724;2022-07-24T03:54:36;6.43;;;5.80;;
68921;SDS011;55959;51.244;5.724;2022-07-24T03:57:02;6.40;;;5.80;;
68921;SDS011;55959;51.244;5.724;2022-07-24T03:59:27;7.10;;;6.07;;
68921;SDS011;55959;51.244;5.724;2022-07-24T04:01:53;6.40;;;5.90;;
68921;SDS011;55959;51.244;5.724;2022-07-24T04:04:20;9.40;;;6.43;;
68921;SDS011;55959;51.244;5.724;2022-07-24T04:06:46;6.05;;;5.55;;
68921;SDS011;55959;51.244;5.724;2022-07-24T04:09:12;6.32;;;5.82;;
68921;SDS011;55959;51.244;5.724;2022-07-24T04:11:38;6.47;;;5.97;;
68921;SDS011;55959;51.244;5.724;2022-07-24T04:14:04;6.68;;;5.97;;
68921;SDS011;55959;51.244;5.724;2022-07-24T04:16:30;6.78;;;6.18;;
68921;SDS011;55959;51.244;5.724;2022-07-24T04:18:56;8.13;;;6.78;;
68921;SDS011;55959;51.244;5.724;2022-07-24T04:21:21;7.95;;;7.15;;
68921;SDS011;55959;51.244;5.724;2022-07-24T04:23:47;7.45;;;6.75;;
68921;SDS011;55959;51.244;5.724;2022-07-24T04:26:13;7.00;;;6.40;;
68921;SDS011;55959;51.244;5.724;2022-07-24T04:28:39;7.40;;;6.70;;
68921;SDS011;55959;51.244;5.724;2022-07-24T04:31:06;6.70;;;6.10;;
68921;SDS011;55959;51.244;5.724;2022-07-24T04:33:32;6.93;;;6.32;;
68921;SDS011;55959;51.244;5.724;2022-07-24T04:35:58;7.72;;;6.90;;
68921;SDS011;55959;51.244;5.724;2022-07-24T04:38:24;8.15;;;7.45;;
68921;SDS011;55959;51.244;5.724;2022-07-24T04:40:50;8.65;;;7.75;;
68921;SDS011;55959;51.244;5.724;2022-07-24T04:43:16;7.60;;;6.90;;
68921;SDS011;55959;51.244;5.724;2022-07-24T04:45:42;7.25;;;6.65;;
68921;SDS011;55959;51.244;5.724;2022-07-24T04:48:08;8.52;;;7.28;;
68921;SDS011;55959;51.244;5.724;2022-07-24T04:50:33;8.13;;;7.32;;
68921;SDS011;55959;51.244;5.724;2022-07-24T04:52:59;8.45;;;7.75;;
68921;SDS011;55959;51.244;5.724;2022-07-24T04:55:25;8.77;;;7.97;;
68921;SDS011;55959;51.244;5.724;2022-07-24T04:57:51;8.90;;;8.10;;
68921;SDS011;55959;51.244;5.724;2022-07-24T05:00:16;8.93;;;8.13;;
68921;SDS011;55959;51.244;5.724;2022-07-24T05:02:42;11.32;;;9.57;;
68921;SDS011;55959;51.244;5.724;2022-07-24T05:05:08;9.60;;;8.63;;
68921;SDS011;55959;51.244;5.724;2022-07-24T05:07:34;10.55;;;9.57;;
68921;SDS011;55959;51.244;5.724;2022-07-24T05:10:00;10.10;;;9.10;;
68921;SDS011;55959;51.244;5.724;2022-07-24T05:12:26;11.18;;;10.05;;
68921;SDS011;55959;51.244;5.724;2022-07-24T05:14:52;11.52;;;10.43;;
68921;SDS011;55959;51.244;5.724;2022-07-24T05:17:18;11.48;;;10.27;;
68921;SDS011;55959;51.244;5.724;2022-07-24T05:19:43;13.30;;;11.90;;
68921;SDS011;55959;51.244;5.724;2022-07-24T05:22:09;12.82;;;11.55;;
68921;SDS011;55959;51.244;5.724;2022-07-24T05:24:35;12.13;;;10.85;;
68921;SDS011;55959;51.244;5.724;2022-07-24T05:27:00;11.73;;;10.70;;
68921;SDS011;55959;51.244;5.724;2022-07-24T05:29:26;13.77;;;12.25;;
68921;SDS011;55959;51.244;5.724;2022-07-24T05:31:52;13.85;;;12.50;;
68921;SDS011;55959;51.244;5.724;2022-07-24T05:34:19;14.25;;;12.02;;
68921;SDS011;55959;51.244;5.724;2022-07-24T05:36:46;13.35;;;12.07;;
68921;SDS011;55959;51.244;5.724;2022-07-24T05:39:12;13.85;;;12.52;;
68921;SDS011;55959;51.244;5.724;2022-07-24T05:41:38;12.75;;;11.52;;
68921;SDS011;55959;51.244;5.724;2022-07-24T05:44:04;13.15;;;11.85;;
68921;SDS011;55959;51.244;5.724;2022-07-24T05:46:30;12.93;;;11.73;;
68921;SDS011;55959;51.244;5.724;2022-07-24T05:48:56;14.25;;;12.90;;
68921;SDS011;55959;51.244;5.724;2022-07-24T05:51:21;14.90;;;13.40;;
68921;SDS011;55959;51.244;5.724;2022-07-24T05:53:47;15.63;;;14.13;;
68921;SDS011;55959;51.244;5.724;2022-07-24T05:56:13;14.50;;;13.20;;
68921;SDS011;55959;51.244;5.724;2022-07-24T05:58:39;14.90;;;13.40;;
68921;SDS011;55959;51.244;5.724;2022-07-24T06:01:05;17.35;;;15.55;;
68921;SDS011;55959;51.244;5.724;2022-07-24T06:03:30;15.93;;;14.52;;
68921;SDS011;55959;51.244;5.724;2022-07-24T06:05:56;16.58;;;15.07;;
68921;SDS011;55959;51.244;5.724;2022-07-24T06:08:22;17.23;;;15.52;;
68921;SDS011;55959;51.244;5.724;2022-07-24T06:10:48;15.05;;;13.52;;
68921;SDS011;55959;51.244;5.724;2022-07-24T06:13:13;16.80;;;15.13;;
68921;SDS011;55959;51.244;5.724;2022-07-24T06:15:39;18.05;;;16.13;;
68921;SDS011;55959;51.244;5.724;2022-07-24T06:18:05;16.17;;;14.65;;
68921;SDS011;55959;51.244;5.724;2022-07-24T06:20:31;16.67;;;15.10;;
68921;SDS011;55959;51.244;5.724;2022-07-24T06:22:56;18.27;;;16.38;;
68921;SDS011;55959;51.244;5.724;2022-07-24T06:25:22;18.25;;;16.45;;
68921;SDS011;55959;51.244;5.724;2022-07-24T06:27:48;17.40;;;15.68;;
68921;SDS011;55959;51.244;5.724;2022-07-24T06:30:17;16.00;;;14.40;;
68921;SDS011;55959;51.244;5.724;2022-07-24T06:32:46;18.70;;;16.85;;
68921;SDS011;55959;51.244;5.724;2022-07-24T06:35:14;16.80;;;15.05;;
68921;SDS011;55959;51.244;5.724;2022-07-24T06:37:40;17.20;;;15.40;;
68921;SDS011;55959;51.244;5.724;2022-07-24T06:40:06;15.10;;;13.63;;
68921;SDS011;55959;51.244;5.724;2022-07-24T06:42:33;18.15;;;16.33;;
68921;SDS011;55959;51.244;5.724;2022-07-24T06:45:00;18.55;;;16.65;;
68921;SDS011;55959;51.244;5.724;2022-07-24T06:47:27;18.83;;;17.02;;
68921;SDS011;55959;51.244;5.724;2022-07-24T06:49:53;16.40;;;14.70;;
68921;SDS011;55959;51.244;5.724;2022-07-24T06:52:18;15.02;;;13.63;;
68921;SDS011;55959;51.244;5.724;2022-07-24T06:54:44;14.38;;;13.05;;
68921;SDS011;55959;51.244;5.724;2022-07-24T06:57:11;16.88;;;15.13;;
68921;SDS011;55959;51.244;5.724;2022-07-24T06:59:36;16.77;;;15.25;;
68921;SDS011;55959;51.244;5.724;2022-07-24T07:02:02;16.80;;;15.13;;
68921;SDS011;55959;51.244;5.724;2022-07-24T07:04:28;14.27;;;12.88;;
68921;SDS011;55959;51.244;5.724;2022-07-24T07:06:54;18.75;;;16.88;;
68921;SDS011;55959;51.244;5.724;2022-07-24T07:09:20;15.05;;;13.65;;
68921;SDS011;55959;51.244;5.724;2022-07-24T07:11:45;16.67;;;15.15;;
68921;SDS011;55959;51.244;5.724;2022-07-24T07:14:11;16.15;;;14.75;;
68921;SDS011;55959;51.244;5.724;2022-07-24T07:16:37;16.77;;;15.07;;
68921;SDS011;55959;51.244;5.724;2022-07-24T07:19:02;20.35;;;18.45;;
68921;SDS011;55959;51.244;5.724;2022-07-24T07:21:28;16.90;;;15.15;;
68921;SDS011;55959;51.244;5.724;2022-07-24T07:23:54;19.98;;;17.88;;
68921;SDS011;55959;51.244;5.724;2022-07-24T07:26:20;15.82;;;14.32;;
68921;SDS011;55959;51.244;5.724;2022-07-24T07:28:46;15.02;;;13.60;;
68921;SDS011;55959;51.244;5.724;2022-07-24T07:31:12;15.07;;;13.48;;
68921;SDS011;55959;51.244;5.724;2022-07-24T07:33:37;16.58;;;14.93;;
68921;SDS011;55959;51.244;5.724;2022-07-24T07:36:03;18.23;;;16.42;;
68921;SDS011;55959;51.244;5.724;2022-07-24T07:38:29;16.35;;;14.75;;
68921;SDS011;55959;51.244;5.724;2022-07-24T07:40:55;17.35;;;15.63;;
68921;SDS011;55959;51.244;5.724;2022-07-24T07:43:21;16.65;;;15.05;;
68921;SDS011;55959;51.244;5.724;2022-07-24T07:45:46;18.20;;;16.50;;
68921;SDS011;55959;51.244;5.724;2022-07-24T07:48:12;15.02;;;13.52;;
68921;SDS011;55959;51.244;5.724;2022-07-24T07:50:38;14.88;;;13.27;;
68921;SDS011;55959;51.244;5.724;2022-07-24T07:53:04;18.75;;;16.80;;
68921;SDS011;55959;51.244;5.724;2022-07-24T07:55:29;16.35;;;14.75;;
68921;SDS011;55959;51.244;5.724;2022-07-24T07:57:55;16.83;;;15.23;;
68921;SDS011;55959;51.244;5.724;2022-07-24T08:00:21;17.10;;;15.10;;
68921;SDS011;55959;51.244;5.724;2022-07-24T08:02:47;14.15;;;12.85;;
68921;SDS011;55959;51.244;5.724;2022-07-24T08:05:12;15.45;;;13.32;;
68921;SDS011;55959;51.244;5.724;2022-07-24T08:07:38;13.60;;;12.30;;
68921;SDS011;55959;51.244;5.724;2022-07-24T08:10:04;10.13;;;9.10;;
68921;SDS011;55959;51.244;5.724;2022-07-24T08:12:31;11.27;;;10.13;;
68921;SDS011;55959;51.244;5.724;2022-07-24T08:14:57;13.27;;;10.60;;
68921;SDS011;55959;51.244;5.724;2022-07-24T08:17:23;11.50;;;10.30;;
68921;SDS011;55959;51.244;5.724;2022-07-24T08:19:48;11.30;;;10.20;;
68921;SDS011;55959;51.244;5.724;2022-07-24T08:22:14;11.43;;;9.80;;
68921;SDS011;55959;51.244;5.724;2022-07-24T08:24:40;10.38;;;9.38;;
68921;SDS011;55959;51.244;5.724;2022-07-24T08:27:06;10.80;;;9.45;;
68921;SDS011;55959;51.244;5.724;2022-07-24T08:29:32;8.80;;;8.00;;
68921;SDS011;55959;51.244;5.724;2022-07-24T08:31:57;9.93;;;8.93;;
68921;SDS011;55959;51.244;5.724;2022-07-24T08:34:23;8.75;;;7.63;;
68921;SDS011;55959;51.244;5.724;2022-07-24T08:36:49;8.65;;;7.85;;
68921;SDS011;55959;51.244;5.724;2022-07-24T08:39:15;8.13;;;7.40;;
68921;SDS011;55959;51.244;5.724;2022-07-24T08:41:43;7.82;;;7.03;;
68921;SDS011;55959;51.244;5.724;2022-07-24T08:44:10;7.10;;;6.40;;
68921;SDS011;55959;51.244;5.724;2022-07-24T08:46:37;7.65;;;6.95;;
68921;SDS011;55959;51.244;5.724;2022-07-24T08:49:10;6.13;;;5.63;;
68921;SDS011;55959;51.244;5.724;2022-07-24T08:51:40;7.07;;;6.13;;
68921;SDS011;55959;51.244;5.724;2022-07-24T08:54:08;6.30;;;5.70;;
68921;SDS011;55959;51.244;5.724;2022-07-24T08:56:38;6.97;;;6.28;;
68921;SDS011;55959;51.244;5.724;2022-07-24T08:59:05;5.85;;;5.30;;
68921;SDS011;55959;51.244;5.724;2022-07-24T09:01:41;6.38;;;4.78;;
68921;SDS011;55959;51.244;5.724;2022-07-24T09:04:07;7.05;;;4.82;;
68921;SDS011;55959;51.244;5.724;2022-07-24T09:06:57;5.22;;;4.45;;
68921;SDS011;55959;51.244;5.724;2022-07-24T09:09:23;4.90;;;4.30;;
68921;SDS011;55959;51.244;5.724;2022-07-24T09:11:49;6.22;;;4.45;;
68921;SDS011;55959;51.244;5.724;2022-07-24T09:14:31;5.45;;;4.32;;
68921;SDS011;55959;51.244;5.724;2022-07-24T09:17:05;4.97;;;4.53;;
68921;SDS011;55959;51.244;5.724;2022-07-24T09:25:11;4.43;;;3.40;;
68921;SDS011;55959;51.244;5.724;2022-07-24T09:27:49;3.03;;;2.70;;
68921;SDS011;55959;51.244;5.724;2022-07-24T09:32:58;4.13;;;3.15;;
68921;SDS011;55959;51.244;5.724;2022-07-24T09:35:49;3.20;;;2.80;;
68921;SDS011;55959;51.244;5.724;2022-07-24T09:38:20;2.55;;;2.33;;
68921;SDS011;55959;51.244;5.724;2022-07-24T09:40:51;2.75;;;2.13;;
68921;SDS011;55959;51.244;5.724;2022-07-24T09:48:25;3.40;;;2.55;;
68921;SDS011;55959;51.244;5.724;2022-07-24T09:51:13;2.33;;;2.13;;
68921;SDS011;55959;51.244;5.724;2022-07-24T09:53:41;2.55;;;2.30;;
68921;SDS011;55959;51.244;5.724;2022-07-24T09:56:12;2.83;;;2.63;;
68921;SDS011;55959;51.244;5.724;2022-07-24T09:58:47;2.40;;;2.20;;
68921;SDS011;55959;51.244;5.724;2022-07-24T10:01:22;2.22;;;2.03;;
68921;SDS011;55959;51.244;5.724;2022-07-24T10:03:51;4.00;;;2.50;;
68921;SDS011;55959;51.244;5.724;2022-07-24T10:06:20;2.47;;;2.28;;
68921;SDS011;55959;51.244;5.724;2022-07-24T10:08:51;2.90;;;2.40;;
68921;SDS011;55959;51.244;5.724;2022-07-24T10:11:18;2.40;;;2.20;;
68921;SDS011;55959;51.244;5.724;2022-07-24T10:13:45;2.67;;;2.20;;
68921;SDS011;55959;51.244;5.724;2022-07-24T10:21:53;2.83;;;2.47;;
68921;SDS011;55959;51.244;5.724;2022-07-24T10:24:24;2.28;;;2.17;;
68921;SDS011;55959;51.244;5.724;2022-07-24T10:27:25;2.63;;;2.42;;
68921;SDS011;55959;51.244;5.724;2022-07-24T10:30:01;3.08;;;2.30;;
68921;SDS011;55959;51.244;5.724;2022-07-24T10:32:34;3.20;;;1.80;;
68921;SDS011;55959;51.244;5.724;2022-07-24T10:37:48;2.00;;;1.90;;
68921;SDS011;55959;51.244;5.724;2022-07-24T10:43:20;2.83;;;2.53;;
68921;SDS011;55959;51.244;5.724;2022-07-24T10:51:11;2.25;;;2.15;;
68921;SDS011;55959;51.244;5.724;2022-07-24T10:56:15;2.90;;;2.53;;
68921;SDS011;55959;51.244;5.724;2022-07-24T11:09:20;2.45;;;1.90;;
68921;SDS011;55959;51.244;5.724;2022-07-24T11:14:46;1.88;;;1.77;;
68921;SDS011;55959;51.244;5.724;2022-07-24T11:20:09;1.92;;;1.60;;
68921;SDS011;55959;51.244;5.724;2022-07-24T11:25:19;1.95;;;1.45;;
68921;SDS011;55959;51.244;5.724;2022-07-24T11:27:56;1.77;;;1.67;;
68921;SDS011;55959;51.244;5.724;2022-07-24T11:30:41;2.20;;;2.08;;
68921;SDS011;55959;51.244;5.724;2022-07-24T11:33:16;2.35;;;2.15;;
68921;SDS011;55959;51.244;5.724;2022-07-24T11:35:46;1.65;;;1.55;;
68921;SDS011;55959;51.244;5.724;2022-07-24T11:38:11;2.30;;;2.10;;
68921;SDS011;55959;51.244;5.724;2022-07-24T11:40:39;2.25;;;1.98;;
68921;SDS011;55959;51.244;5.724;2022-07-24T11:43:05;2.28;;;2.00;;
68921;SDS011;55959;51.244;5.724;2022-07-24T11:45:34;1.90;;;1.80;;
68921;SDS011;55959;51.244;5.724;2022-07-24T11:47:59;2.30;;;2.10;;
68921;SDS011;55959;51.244;5.724;2022-07-24T11:50:26;1.90;;;1.75;;
68921;SDS011;55959;51.244;5.724;2022-07-24T11:52:52;1.83;;;1.73;;
68921;SDS011;55959;51.244;5.724;2022-07-24T11:55:20;2.13;;;1.90;;
68921;SDS011;55959;51.244;5.724;2022-07-24T11:57:50;2.58;;;2.20;;
68921;SDS011;55959;51.244;5.724;2022-07-24T12:00:20;2.70;;;2.47;;
68921;SDS011;55959;51.244;5.724;2022-07-24T12:02:54;2.30;;;2.10;;
68921;SDS011;55959;51.244;5.724;2022-07-24T12:05:35;2.22;;;2.03;;
68921;SDS011;55959;51.244;5.724;2022-07-24T12:08:03;2.20;;;2.00;;
68921;SDS011;55959;51.244;5.724;2022-07-24T12:10:41;2.10;;;1.90;;
68921;SDS011;55959;51.244;5.724;2022-07-24T12:13:07;1.90;;;1.80;;
68921;SDS011;55959;51.244;5.724;2022-07-24T12:15:33;1.90;;;1.80;;
68921;SDS011;55959;51.244;5.724;2022-07-24T12:18:04;2.40;;;2.20;;
68921;SDS011;55959;51.244;5.724;2022-07-24T12:20:35;1.92;;;1.75;;
68921;SDS011;55959;51.244;5.724;2022-07-24T12:23:13;2.22;;;2.03;;
68921;SDS011;55959;51.244;5.724;2022-07-24T12:25:44;2.03;;;1.92;;
68921;SDS011;55959;51.244;5.724;2022-07-24T12:28:14;2.75;;;1.95;;
68921;SDS011;55959;51.244;5.724;2022-07-24T12:33:21;2.60;;;1.98;;
68921;SDS011;55959;51.244;5.724;2022-07-24T12:38:50;1.70;;;1.60;;
68921;SDS011;55959;51.244;5.724;2022-07-24T12:41:21;2.20;;;2.10;;
68921;SDS011;55959;51.244;5.724;2022-07-24T12:43:54;1.75;;;1.60;;
68921;SDS011;55959;51.244;5.724;2022-07-24T12:46:34;1.80;;;1.70;;
68921;SDS011;55959;51.244;5.724;2022-07-24T12:54:26;1.52;;;1.42;;
68921;SDS011;55959;51.244;5.724;2022-07-24T12:57:07;2.22;;;2.03;;
68921;SDS011;55959;51.244;5.724;2022-07-24T12:59:36;2.08;;;1.70;;
68921;SDS011;55959;51.244;5.724;2022-07-24T13:02:05;1.77;;;1.55;;
68921;SDS011;55959;51.244;5.724;2022-07-24T13:04:51;1.70;;;1.60;;
68921;SDS011;55959;51.244;5.724;2022-07-24T13:07:20;1.98;;;1.85;;
68921;SDS011;55959;51.244;5.724;2022-07-24T13:09:49;2.00;;;1.80;;
68921;SDS011;55959;51.244;5.724;2022-07-24T13:12:16;1.60;;;1.50;;
68921;SDS011;55959;51.244;5.724;2022-07-24T13:14:43;2.13;;;1.55;;
68921;SDS011;55959;51.244;5.724;2022-07-24T13:17:13;1.95;;;1.85;;
68921;SDS011;55959;51.244;5.724;2022-07-24T13:19:41;2.22;;;1.40;;
68921;SDS011;55959;51.244;5.724;2022-07-24T13:22:13;1.95;;;1.70;;
68921;SDS011;55959;51.244;5.724;2022-07-24T13:24:40;2.08;;;1.45;;
68921;SDS011;55959;51.244;5.724;2022-07-24T13:27:07;1.92;;;1.70;;
68921;SDS011;55959;51.244;5.724;2022-07-24T13:29:35;1.83;;;1.67;;
68921;SDS011;55959;51.244;5.724;2022-07-24T13:32:02;2.67;;;1.88;;
68921;SDS011;55959;51.244;5.724;2022-07-24T13:34:30;1.77;;;1.63;;
68921;SDS011;55959;51.244;5.724;2022-07-24T13:36:57;1.60;;;1.50;;
68921;SDS011;55959;51.244;5.724;2022-07-24T13:39:22;1.50;;;1.40;;
68921;SDS011;55959;51.244;5.724;2022-07-24T13:41:48;2.00;;;1.80;;
68921;SDS011;55959;51.244;5.724;2022-07-24T13:44:14;1.80;;;1.60;;
68921;SDS011;55959;51.244;5.724;2022-07-24T13:46:40;1.50;;;1.40;;
68921;SDS011;55959;51.244;5.724;2022-07-24T13:49:07;2.25;;;1.70;;
68921;SDS011;55959;51.244;5.724;2022-07-24T13:51:34;1.58;;;1.48;;
68921;SDS011;55959;51.244;5.724;2022-07-24T13:54:03;1.52;;;1.42;;
68921;SDS011;55959;51.244;5.724;2022-07-24T13:56:29;1.80;;;1.40;;
68921;SDS011;55959;51.244;5.724;2022-07-24T13:58:56;1.65;;;1.55;;
68921;SDS011;55959;51.244;5.724;2022-07-24T14:01:23;1.60;;;1.40;;
68921;SDS011;55959;51.244;5.724;2022-07-24T14:03:49;1.50;;;1.40;;
68921;SDS011;55959;51.244;5.724;2022-07-24T14:06:15;1.80;;;1.30;;
68921;SDS011;55959;51.244;5.724;2022-07-24T14:08:41;1.55;;;1.45;;
68921;SDS011;55959;51.244;5.724;2022-07-24T14:11:07;2.00;;;1.30;;
68921;SDS011;55959;51.244;5.724;2022-07-24T14:13:34;1.30;;;1.20;;
68921;SDS011;55959;51.244;5.724;2022-07-24T14:16:00;1.60;;;1.45;;
68921;SDS011;55959;51.244;5.724;2022-07-24T14:18:26;1.60;;;1.50;;
68921;SDS011;55959;51.244;5.724;2022-07-24T14:20:51;1.63;;;1.52;;
68921;SDS011;55959;51.244;5.724;2022-07-24T14:23:17;1.25;;;1.15;;
68921;SDS011;55959;51.244;5.724;2022-07-24T14:25:43;1.50;;;1.40;;
68921;SDS011;55959;51.244;5.724;2022-07-24T14:28:10;1.50;;;1.40;;
68921;SDS011;55959;51.244;5.724;2022-07-24T14:30:36;1.60;;;1.50;;
68921;SDS011;55959;51.244;5.724;2022-07-24T14:33:02;1.73;;;1.42;;
68921;SDS011;55959;51.244;5.724;2022-07-24T14:35:28;1.70;;;1.60;;
68921;SDS011;55959;51.244;5.724;2022-07-24T14:37:56;1.30;;;1.20;;
68921;SDS011;55959;51.244;5.724;2022-07-24T14:40:22;2.60;;;2.38;;
68921;SDS011;55959;51.244;5.724;2022-07-24T14:42:48;1.95;;;1.80;;
68921;SDS011;55959;51.244;5.724;2022-07-24T14:45:15;1.48;;;1.38;;
68921;SDS011;55959;51.244;5.724;2022-07-24T14:47:41;1.48;;;1.38;;
68921;SDS011;55959;51.244;5.724;2022-07-24T14:50:07;1.67;;;1.23;;
68921;SDS011;55959;51.244;5.724;2022-07-24T14:52:35;1.65;;;1.33;;
68921;SDS011;55959;51.244;5.724;2022-07-24T14:55:02;2.08;;;1.60;;
68921;SDS011;55959;51.244;5.724;2022-07-24T14:57:30;2.45;;;2.33;;
68921;SDS011;55959;51.244;5.724;2022-07-24T14:59:56;1.85;;;1.75;;
68921;SDS011;55959;51.244;5.724;2022-07-24T15:02:21;3.40;;;3.20;;
68921;SDS011;55959;51.244;5.724;2022-07-24T15:04:47;1.65;;;1.55;;
68921;SDS011;55959;51.244;5.724;2022-07-24T15:07:13;1.35;;;1.25;;
68921;SDS011;55959;51.244;5.724;2022-07-24T15:09:39;2.50;;;2.30;;
68921;SDS011;55959;51.244;5.724;2022-07-24T15:12:05;3.60;;;2.80;;
68921;SDS011;55959;51.244;5.724;2022-07-24T15:14:32;4.15;;;3.75;;
68921;SDS011;55959;51.244;5.724;2022-07-24T15:16:57;3.63;;;3.33;;
68921;SDS011;55959;51.244;5.724;2022-07-24T15:19:23;1.80;;;1.70;;
68921;SDS011;55959;51.244;5.724;2022-07-24T15:21:49;2.50;;;2.30;;
68921;SDS011;55959;51.244;5.724;2022-07-24T15:24:15;2.28;;;1.48;;
68921;SDS011;55959;51.244;5.724;2022-07-24T15:26:41;6.03;;;4.75;;
68921;SDS011;55959;51.244;5.724;2022-07-24T15:29:06;5.13;;;4.35;;
68921;SDS011;55959;51.244;5.724;2022-07-24T15:31:32;2.35;;;2.13;;
68921;SDS011;55959;51.244;5.724;2022-07-24T15:33:58;2.15;;;1.90;;
68921;SDS011;55959;51.244;5.724;2022-07-24T15:36:24;2.05;;;1.55;;
68921;SDS011;55959;51.244;5.724;2022-07-24T15:38:50;1.73;;;1.63;;
68921;SDS011;55959;51.244;5.724;2022-07-24T15:41:15;1.70;;;1.60;;
68921;SDS011;55959;51.244;5.724;2022-07-24T15:43:41;1.90;;;1.80;;